Kilby, North Carolina
Current Conditions -  °F | °C
As of 2:53 PM on Saturday 25 Oct 2014 (Local Time) from KHKY Reporting Station
Clear Clear  
Wind Chill: 72°   Ceiling: Unl
Heat Index: 72°   Visibility: 10mi
Dew Point: 36°   Wind: 7mph
Humidity: 27%   Direction: 220°SW
Pressure: 29.96"   Gusts: NA
Location:  35.9243°N, 81.216°W
Report Text: KHKY 251853Z AUTO 22006KT 10SM CLR 22/02 A2996 RMK AO2 SLP132 T02220022
Loading
Personal Weather Stations






























Interactive Weather Map
Tropical Storm Tracking
New forecast layout! Learn more

10-Day Weather Forecast

Advertisements
Track Severe Weather on mobile